Terminal Aerodrome Forecast
Issued by NWS

Home | Current Version | Previous Version | Text Only | Print | Product List | Glossary On
Versions: 1 2 3 4 5 6 7 8 9 10 11 12 13 14 15
000
FTUS41 KCAR 221400 AAB
TAFBHB
TAF AMD
KBHB 221455Z 2215/2312 VRB03KT P6SM BKN015
     FM221700 VRB03KT P6SM BKN110
     FM230900 04005KT P6SM BKN015
      AMD LTD TO CLD VIS AND WIND=

USA.gov is the U.S. government's official web portal to all federal, state and local government web resources and services.